Terminal Aerodrome Forecast
Issued by NWS Lake Charles, LA

Home | Current Version | Previous Version | Text Only | Print | Product List | Glossary On
Versions: 1 2 3 4 5 6 7 8 9 10 11 12 13 14 15 16 17 18 19
355
FTUS44 KLCH 171601 AAC
TAFBPT
TAF AMD
KBPT 171601Z 1716/1812 01010KT P6SM BKN004 BKN035
      TEMPO 1716/1718 5SM BR
     FM171800 VRB03KT P6SM BKN008 BKN035
      TEMPO 1802/1806 -RA SCT017 BKN020 OVC030
     FM180600 09003KT 4SM -RA BR SCT015 OVC025
      TEMPO 1806/1809 2SM -TSRA BR BKN015CB=

USA.gov is the U.S. government's official web portal to all federal, state and local government web resources and services.